Time;durP1;ratioP1;P1;durP2;ratioP2;P2;SDS_P1;SDS_P2;PMS_P1;PMS_P2;Temp;Humidity;BMP_temperature;BMP_pressure;BME280_temperature;BME280_humidity;BME280_pressure;Samples;Min_cycle;Max_cycle;Signal;HPM_P1;HPM_P2
2022/12/20 00:01:08;;;;;;;7.95;4.60;;;8.20;99.90;;;;;;12627266;28;20048;-86
2022/12/20 00:07:10;;;;;;;8.93;5.25;;;8.30;99.90;;;;;;12645270;28;20044;-86
2022/12/20 00:13:12;;;;;;;9.43;4.90;;;8.20;99.90;;;;;;12625130;28;20045;-86
2022/12/20 00:19:14;;;;;;;11.07;5.35;;;8.20;99.90;;;;;;12628920;28;20079;-86
2022/12/20 00:25:16;;;;;;;10.32;5.70;;;8.20;99.90;;;;;;12615876;28;20048;-86
2022/12/20 00:31:20;;;;;;;8.57;5.07;;;8.20;99.90;;;;;;12622217;28;20048;-86
2022/12/20 00:37:22;;;;;;;8.25;5.07;;;8.20;99.90;;;;;;12631861;28;20044;-86
2022/12/20 00:43:24;;;;;;;9.10;4.97;;;8.30;99.90;;;;;;12625879;28;20054;-86
2022/12/20 00:49:26;;;;;;;10.80;5.18;;;8.50;99.90;;;;;;12616801;28;20051;-86
2022/12/20 00:55:27;;;;;;;9.57;5.18;;;8.50;99.90;;;;;;12614346;28;20051;-86
2022/12/20 01:01:31;;;;;;;9.75;4.95;;;8.60;99.90;;;;;;12595865;28;20067;-86
2022/12/20 01:07:33;;;;;;;9.30;5.03;;;8.60;99.90;;;;;;12591188;28;20059;-85
2022/12/20 01:13:38;;;;;;;11.07;4.32;;;8.70;99.90;;;;;;12577852;28;20049;-85
2022/12/20 01:19:40;;;;;;;8.05;4.75;;;8.80;99.90;;;;;;12588662;28;20049;-86
2022/12/20 01:25:41;;;;;;;8.88;4.85;;;8.80;99.90;;;;;;12569468;28;20101;-85
2022/12/20 01:31:44;;;;;;;9.82;4.15;;;8.70;99.90;;;;;;12558933;28;20519;-86
2022/12/20 01:37:45;;;;;;;8.90;5.22;;;8.80;99.90;;;;;;12601221;28;20199;-86
2022/12/20 01:44:14;;;;;;;9.25;5.15;;;8.70;99.90;;;;;;12574819;28;20049;-86
2022/12/20 01:50:16;;;;;;;9.95;5.50;;;8.60;99.90;;;;;;12543478;28;20060;-85
2022/12/20 01:56:18;;;;;;;9.75;5.47;;;8.50;99.90;;;;;;12587793;28;20045;-85
2022/12/20 02:02:20;;;;;;;11.77;6.30;;;8.30;99.90;;;;;;12585786;28;20043;-85
2022/12/20 02:08:22;;;;;;;9.43;5.40;;;8.20;99.90;;;;;;12596358;28;20063;-86
2022/12/20 02:14:43;;;;;;;10.70;6.18;;;8.10;99.90;;;;;;12570778;28;20051;-85
2022/12/20 02:21:02;;;;;;;9.15;5.20;;;8.10;99.90;;;;;;12584848;28;20059;-85
2022/12/20 02:27:22;;;;;;;8.88;5.10;;;8.20;99.90;;;;;;12592419;28;20048;-85
2022/12/20 02:33:27;;;;;;;9.38;4.53;;;8.30;99.90;;;;;;12559880;28;20044;-85
2022/12/20 02:39:30;;;;;;;7.28;4.30;;;8.50;99.90;;;;;;12574493;28;20513;-85
2022/12/20 02:45:35;;;;;;;7.95;4.18;;;8.50;99.90;;;;;;12581773;28;20044;-85
2022/12/20 02:51:40;;;;;;;6.78;4.10;;;8.60;99.90;;;;;;12591079;28;20071;-85
2022/12/20 02:57:50;;;;;;;8.25;4.35;;;8.70;99.90;;;;;;12561887;28;20045;-85
2022/12/20 03:04:01;;;;;;;6.68;3.90;;;8.60;99.90;;;;;;12596120;28;20449;-84
2022/12/20 03:10:03;;;;;;;6.22;3.58;;;8.60;99.90;;;;;;12561488;28;20056;-85
2022/12/20 03:16:06;;;;;;;8.30;4.78;;;8.60;99.90;;;;;;12541022;28;20040;-85
2022/12/20 03:22:08;;;;;;;6.18;3.75;;;8.70;99.90;;;;;;12526846;28;20048;-85
2022/12/20 03:28:10;;;;;;;6.95;3.95;;;8.70;99.90;;;;;;12523115;28;20569;-85
2022/12/20 03:34:11;;;;;;;6.07;3.63;;;8.70;99.90;;;;;;12511985;28;20404;-85
2022/12/20 03:40:14;;;;;;;6.35;3.63;;;8.80;99.90;;;;;;12526987;28;20048;-85
2022/12/20 03:46:17;;;;;;;6.28;3.85;;;8.80;99.90;;;;;;12512775;28;20053;-85
2022/12/20 03:52:19;;;;;;;7.10;3.67;;;8.80;99.90;;;;;;12531516;28;20098;-85
2022/12/20 03:58:21;;;;;;;7.53;3.70;;;8.80;99.90;;;;;;12518254;28;20049;-84
2022/12/20 04:04:22;;;;;;;7.10;3.78;;;8.90;99.90;;;;;;12515430;28;20080;-87
2022/12/20 04:10:24;;;;;;;11.00;3.90;;;8.80;99.90;;;;;;12526521;28;20584;-85
2022/12/20 04:16:28;;;;;;;6.32;3.85;;;8.80;99.90;;;;;;12586694;28;20419;-85
2022/12/20 04:22:30;;;;;;;7.22;4.25;;;8.90;99.90;;;;;;12590257;28;20572;-85
2022/12/20 04:28:32;;;;;;;6.72;4.28;;;8.90;99.90;;;;;;12566449;28;20127;-85
2022/12/20 04:34:34;;;;;;;6.93;4.28;;;8.80;99.90;;;;;;12583963;28;20081;-85
2022/12/20 04:40:36;;;;;;;7.97;4.88;;;8.70;99.90;;;;;;12588510;28;20492;-85
2022/12/20 04:46:38;;;;;;;9.68;5.05;;;8.70;99.90;;;;;;12581657;28;20056;-85
2022/12/20 04:59:01;;;;;;;7.57;5.20;;;8.50;99.90;;;;;;12583250;28;20416;-85
2022/12/20 05:05:03;;;;;;;8.02;5.35;;;8.30;99.90;;;;;;12572576;28;20047;-85
2022/12/20 05:11:05;;;;;;;12.85;6.13;;;8.20;99.90;;;;;;12547043;28;20055;-85
2022/12/20 05:17:08;;;;;;;10.32;6.38;;;8.10;99.90;;;;;;12558080;28;20045;-85
2022/12/20 05:29:30;;;;;;;11.98;7.15;;;7.80;99.90;;;;;;12559431;28;20064;-85
2022/12/20 05:35:32;;;;;;;13.50;7.10;;;7.70;99.90;;;;;;12521616;28;20041;-85
2022/12/20 05:41:34;;;;;;;14.50;7.50;;;7.70;99.90;;;;;;12509327;28;20036;-84
2022/12/20 05:47:37;;;;;;;12.30;7.60;;;7.70;99.90;;;;;;12536956;28;20053;-84
2022/12/20 05:53:39;;;;;;;12.48;7.90;;;7.70;99.90;;;;;;12535272;28;20129;-84
2022/12/20 05:59:41;;;;;;;13.10;7.07;;;7.80;99.90;;;;;;12549151;28;20075;-85
2022/12/20 06:05:43;;;;;;;13.63;7.65;;;7.80;99.90;;;;;;12533821;28;20048;-85
2022/12/20 06:11:46;;;;;;;11.40;6.95;;;7.80;99.90;;;;;;12556156;28;20511;-85
2022/12/20 06:17:48;;;;;;;12.23;6.80;;;8.00;99.90;;;;;;12570407;28;20049;-85
2022/12/20 06:23:49;;;;;;;13.10;6.70;;;7.90;99.90;;;;;;12589231;28;20135;-85
2022/12/20 06:29:53;;;;;;;9.40;5.88;;;8.10;99.90;;;;;;12574592;28;20080;-85
2022/12/20 06:35:55;;;;;;;9.30;5.90;;;8.20;99.90;;;;;;12592801;28;20051;-85
2022/12/20 06:41:57;;;;;;;10.50;6.30;;;8.30;99.90;;;;;;12575125;28;20052;-85
2022/12/20 06:47:58;;;;;;;9.77;5.90;;;8.30;99.90;;;;;;12589808;28;20049;-85
2022/12/20 06:54:00;;;;;;;9.77;6.10;;;8.30;99.90;;;;;;12566087;28;20442;-85
2022/12/20 07:00:03;;;;;;;10.85;7.10;;;8.40;99.90;;;;;;12579912;28;20097;-85
2022/12/20 07:06:05;;;;;;;10.30;6.38;;;8.30;99.90;;;;;;12580165;28;20052;-85
2022/12/20 07:12:11;;;;;;;10.25;6.20;;;8.40;99.90;;;;;;12567401;28;20044;-85
2022/12/20 07:18:12;;;;;;;12.82;6.75;;;8.40;99.90;;;;;;12510664;28;20060;-85
2022/12/20 07:24:14;;;;;;;11.20;6.97;;;8.40;99.90;;;;;;12542090;28;20049;-85
2022/12/20 07:30:17;;;;;;;11.13;6.90;;;8.40;99.90;;;;;;12535284;28;20064;-85
2022/12/20 07:36:19;;;;;;;11.70;6.80;;;8.40;99.90;;;;;;12520003;28;20077;-86
2022/12/20 07:42:21;;;;;;;9.57;6.30;;;8.50;99.90;;;;;;12525805;28;20492;-86
2022/12/20 07:48:23;;;;;;;12.63;7.43;;;8.60;99.90;;;;;;12537061;28;20052;-85
2022/12/20 07:54:32;;;;;;;13.63;8.45;;;8.60;99.90;;;;;;12538574;28;20098;-85
2022/12/20 08:00:34;;;;;;;13.60;8.35;;;8.30;99.90;;;;;;12503688;28;20068;-86
2022/12/20 08:06:39;;;;;;;15.63;8.82;;;8.20;99.90;;;;;;12539385;28;20060;-85
2022/12/20 08:12:46;;;;;;;12.55;8.10;;;8.30;99.90;;;;;;12569847;28;20048;-85
2022/12/20 08:18:47;;;;;;;13.10;8.47;;;8.40;99.90;;;;;;12573214;28;20552;-85
2022/12/20 08:24:49;;;;;;;15.75;9.05;;;8.40;99.90;;;;;;12558443;28;20044;-86
2022/12/20 08:30:51;;;;;;;14.27;8.73;;;8.30;99.90;;;;;;12572104;28;20041;-85
2022/12/20 08:36:53;;;;;;;14.93;8.48;;;8.30;99.90;;;;;;12558251;28;20060;-86
2022/12/20 08:42:55;;;;;;;13.50;7.90;;;8.40;99.90;;;;;;12580109;28;21393;-85
2022/12/20 08:48:56;;;;;;;11.63;8.10;;;8.50;99.90;;;;;;12564778;28;20056;-85
2022/12/20 08:54:58;;;;;;;15.60;8.48;;;8.50;99.90;;;;;;12558780;28;20048;-85
2022/12/20 09:01:08;;;;;;;11.82;7.68;;;8.50;99.90;;;;;;12580976;28;20040;-85
2022/12/20 09:07:10;;;;;;;12.60;7.10;;;8.50;99.90;;;;;;12566293;28;20052;-85
2022/12/20 09:13:12;;;;;;;11.18;7.50;;;8.70;99.90;;;;;;12545588;28;20127;-84
2022/12/20 09:19:14;;;;;;;11.68;7.60;;;8.80;99.90;;;;;;12500713;28;20049;-85
2022/12/20 09:25:16;;;;;;;13.02;7.35;;;8.70;99.90;;;;;;12537064;28;20053;-85
2022/12/20 09:31:21;;;;;;;10.00;6.47;;;8.80;99.90;;;;;;12530345;28;20056;-85
2022/12/20 09:37:23;;;;;;;12.73;7.20;;;8.80;99.90;;;;;;12531370;28;20048;-85
2022/12/20 09:43:25;;;;;;;9.75;6.60;;;8.80;99.90;;;;;;12538633;28;20053;-85
2022/12/20 09:49:32;;;;;;;10.95;6.70;;;8.90;99.90;;;;;;12515127;28;20060;-86
2022/12/20 09:55:49;;;;;;;11.63;6.22;;;9.10;99.90;;;;;;12510611;28;20139;-85
2022/12/20 10:01:51;;;;;;;10.80;6.18;;;9.20;99.90;;;;;;12518289;28;20458;-85
2022/12/20 10:08:06;;;;;;;6.47;4.07;;;9.40;99.90;;;;;;12543674;28;20048;-85
2022/12/20 10:14:27;;;;;;;;;;;9.70;99.90;;;;;;12582345;28;20042;-85
2022/12/20 10:20:46;;;;;;;5.57;3.60;;;10.10;99.90;;;;;;12591307;28;19928;-85
2022/12/20 10:26:49;;;;;;;8.20;3.30;;;10.40;99.90;;;;;;12565985;28;20059;-86
2022/12/20 10:32:54;;;;;;;5.23;3.10;;;10.40;99.90;;;;;;12568643;28;20043;-86
2022/12/20 10:38:58;;;;;;;7.45;3.50;;;10.50;99.90;;;;;;12567133;28;20068;-86
2022/12/20 10:45:01;;;;;;;6.97;3.50;;;10.70;99.90;;;;;;12590623;28;20055;-86
2022/12/20 10:51:13;;;;;;;7.07;3.70;;;10.70;99.90;;;;;;12587002;28;20135;-86
2022/12/20 10:57:24;;;;;;;4.93;3.25;;;10.70;99.90;;;;;;12575650;28;20055;-86
2022/12/20 11:03:28;;;;;;;8.30;4.22;;;10.70;99.90;;;;;;12562995;28;20044;-86
2022/12/20 11:09:36;;;;;;;6.30;3.83;;;10.70;99.90;;;;;;12561743;28;20052;-86
2022/12/20 11:15:48;;;;;;;7.15;3.55;;;10.60;99.90;;;;;;12528492;28;20148;-86
2022/12/20 11:22:19;;;;;;;6.82;3.85;;;10.60;99.90;;;;;;12530301;28;20041;-87
2022/12/20 11:28:45;;;;;;;7.65;4.28;;;10.40;99.90;;;;;;12522128;28;20080;-86
2022/12/20 11:35:10;;;;;;;7.25;4.03;;;10.50;99.90;;;;;;12513609;28;20056;-86
2022/12/20 11:41:20;;;;;;;9.65;4.15;;;10.40;99.90;;;;;;12524230;28;20454;-86
2022/12/20 11:47:46;;;;;;;8.32;4.10;;;10.50;99.90;;;;;;12540161;28;20057;-86
2022/12/20 11:54:16;;;;;;;6.95;3.88;;;10.40;99.90;;;;;;12533207;28;20510;-86
2022/12/20 12:00:21;;;;;;;6.53;3.95;;;10.40;99.90;;;;;;12513304;28;20056;-86
2022/12/20 12:06:28;;;;;;;6.30;3.45;;;10.50;99.90;;;;;;12521027;28;20077;-86
2022/12/20 12:12:43;;;;;;;5.32;3.13;;;10.60;99.90;;;;;;12563322;28;20101;-86
2022/12/20 12:18:45;;;;;;;6.60;3.53;;;10.70;99.90;;;;;;12578120;28;20048;-86
2022/12/20 12:24:51;;;;;;;6.07;3.20;;;10.60;99.90;;;;;;12562635;28;20041;-87
2022/12/20 12:30:58;;;;;;;5.53;3.00;;;10.70;99.90;;;;;;12579659;28;20462;-85
2022/12/20 12:37:35;;;;;;;4.93;2.97;;;10.80;99.90;;;;;;12568915;28;20051;-86
2022/12/20 12:43:51;;;;;;;5.30;2.88;;;10.90;99.90;;;;;;12580977;28;20052;-86
2022/12/20 12:49:55;;;;;;;5.13;2.88;;;10.90;99.90;;;;;;12550286;28;20044;-86
2022/12/20 12:55:57;;;;;;;5.10;2.70;;;10.80;99.90;;;;;;12581501;28;20044;-86
2022/12/20 13:02:26;;;;;;;5.32;2.60;;;10.80;99.90;;;;;;12570943;28;20412;-86
2022/12/20 13:08:48;;;;;;;5.95;2.63;;;10.60;99.90;;;;;;12582311;28;20057;-86
2022/12/20 13:14:49;;;;;;;9.02;3.53;;;10.70;99.90;;;;;;12536436;28;20044;-85
2022/12/20 13:21:28;;;;;;;6.78;3.63;;;10.60;99.90;;;;;;12516276;28;20529;-86
2022/12/20 13:27:39;;;;;;;8.02;4.35;;;10.50;99.90;;;;;;12529150;28;20056;-86
2022/12/20 13:33:43;;;;;;;6.72;3.20;;;10.30;99.90;;;;;;12527311;28;20049;-86
2022/12/20 13:39:47;;;;;;;7.70;3.20;;;10.20;99.90;;;;;;12508727;28;20476;-86
2022/12/20 13:45:56;;;;;;;5.40;3.47;;;10.10;99.90;;;;;;12545580;28;20463;-86
2022/12/20 13:52:10;;;;;;;7.00;3.20;;;10.20;99.90;;;;;;12533284;28;20111;-86
2022/12/20 13:58:16;;;;;;;6.07;3.50;;;10.10;99.90;;;;;;12542394;28;20508;-86
2022/12/20 14:04:19;;;;;;;7.07;3.50;;;10.10;99.90;;;;;;12539469;28;20060;-86
2022/12/20 14:10:27;;;;;;;7.05;3.72;;;10.10;99.90;;;;;;12544932;28;20064;-85
2022/12/20 14:16:31;;;;;;;7.90;3.70;;;10.00;99.90;;;;;;12538701;28;20927;-86
2022/12/20 14:22:34;;;;;;;6.82;3.58;;;10.00;99.90;;;;;;12560396;28;20045;-86
2022/12/20 14:28:38;;;;;;;8.40;3.08;;;10.10;99.90;;;;;;12524426;28;20072;-86
2022/12/20 14:34:42;;;;;;;5.57;3.30;;;10.10;99.90;;;;;;12568179;28;20044;-86
2022/12/20 14:40:43;;;;;;;5.85;2.88;;;10.20;99.90;;;;;;12589488;28;20063;-86
2022/12/20 14:47:24;;;;;;;5.95;3.55;;;10.30;99.90;;;;;;12571934;28;20123;-86
2022/12/20 14:53:27;;;;;;;7.45;3.78;;;10.10;99.90;;;;;;12563056;28;20109;-86
2022/12/20 14:59:30;;;;;;;8.70;3.33;;;10.10;99.90;;;;;;12586915;28;20059;-86
2022/12/20 15:05:37;;;;;;;5.43;3.22;;;10.10;99.90;;;;;;12579098;28;20088;-86
2022/12/20 15:11:42;;;;;;;7.35;2.90;;;10.10;99.90;;;;;;12567014;28;20105;-86
2022/12/20 15:17:44;;;;;;;5.88;3.00;;;10.20;99.90;;;;;;12570208;28;20178;-86
2022/12/20 15:23:51;;;;;;;5.13;2.63;;;10.20;99.90;;;;;;12587835;28;20045;-86
2022/12/20 15:29:53;;;;;;;5.97;2.45;;;10.20;99.90;;;;;;12580357;28;20048;-86
2022/12/20 15:35:55;;;;;;;5.50;2.38;;;10.30;99.90;;;;;;12577896;28;20563;-86
2022/12/20 15:42:00;;;;;;;7.05;2.35;;;10.40;99.90;;;;;;12562194;28;20048;-85
2022/12/20 15:48:02;;;;;;;6.60;2.30;;;10.40;99.90;;;;;;12583794;28;20048;-85
2022/12/20 15:54:21;;;;;;;5.40;2.60;;;10.20;99.90;;;;;;12557988;28;20094;-86
2022/12/20 16:00:24;;;;;;;5.13;2.63;;;10.10;99.90;;;;;;12565194;28;20036;-86
2022/12/20 16:06:26;;;;;;;7.20;2.95;;;9.90;99.90;;;;;;12571139;28;20060;-86
2022/12/20 16:12:32;;;;;;;7.22;3.50;;;9.80;99.90;;;;;;12573009;28;20412;-86
2022/12/20 16:18:33;;;;;;;7.53;3.75;;;9.70;99.90;;;;;;12557437;28;20049;-86
2022/12/20 16:24:35;;;;;;;6.30;4.20;;;9.70;99.90;;;;;;12563665;28;20056;-85
2022/12/20 16:30:37;;;;;;;9.30;4.30;;;9.70;99.90;;;;;;12564154;28;20055;-86
2022/12/20 16:36:39;;;;;;;11.23;4.70;;;9.60;99.90;;;;;;12567789;28;20048;-86
2022/12/20 16:42:42;;;;;;;10.38;5.20;;;9.50;99.90;;;;;;12559900;28;20041;-85
2022/12/20 16:48:45;;;;;;;10.77;5.82;;;9.40;99.90;;;;;;12579810;28;20424;-86
2022/12/20 16:54:46;;;;;;;9.38;5.80;;;9.30;99.90;;;;;;12562116;28;20036;-85
2022/12/20 17:00:49;;;;;;;10.68;5.63;;;9.30;99.90;;;;;;12560849;28;20135;-86
2022/12/20 17:06:51;;;;;;;12.45;6.10;;;9.20;99.90;;;;;;12580951;28;20040;-85
2022/12/20 17:12:53;;;;;;;8.65;5.05;;;9.20;99.90;;;;;;12568651;28;20090;-85
2022/12/20 17:18:57;;;;;;;7.70;4.88;;;9.20;99.90;;;;;;12582666;28;20047;-86
2022/12/20 17:25:00;;;;;;;7.82;5.05;;;9.20;99.90;;;;;;12580869;28;20048;-86
2022/12/20 17:31:03;;;;;;;8.98;5.40;;;9.20;99.90;;;;;;12583474;28;20044;-85
2022/12/20 17:37:09;;;;;;;7.22;5.15;;;9.20;99.90;;;;;;12582945;28;20481;-85
2022/12/20 17:43:12;;;;;;;10.43;5.22;;;9.20;99.90;;;;;;12561717;28;20048;-86
2022/12/20 17:49:15;;;;;;;8.93;5.20;;;9.10;99.90;;;;;;12577880;28;20052;-85
2022/12/20 17:55:27;;;;;;;9.20;5.22;;;9.20;99.90;;;;;;12558405;28;20058;-86
2022/12/20 18:01:31;;;;;;;12.18;5.97;;;9.10;99.90;;;;;;12576302;28;20111;-86
2022/12/20 18:07:33;;;;;;;9.75;6.07;;;9.10;99.90;;;;;;12578626;28;20049;-86
2022/12/20 18:13:35;;;;;;;10.55;5.80;;;9.10;99.90;;;;;;12553651;28;20036;-86
2022/12/20 18:19:38;;;;;;;9.57;5.50;;;9.00;99.90;;;;;;12562753;28;20056;-86
2022/12/20 18:25:40;;;;;;;9.20;5.63;;;9.00;99.90;;;;;;12568121;28;20075;-86
2022/12/20 18:31:41;;;;;;;9.73;5.68;;;8.90;99.90;;;;;;12580771;28;20037;-86
2022/12/20 18:37:43;;;;;;;10.93;5.97;;;8.90;99.90;;;;;;12573489;28;20547;-86
2022/12/20 18:43:45;;;;;;;10.77;5.72;;;8.90;99.90;;;;;;12565695;28;20049;-86
2022/12/20 18:49:47;;;;;;;11.30;6.57;;;8.80;99.90;;;;;;12587659;28;20044;-86
2022/12/20 18:55:49;;;;;;;8.93;6.88;;;8.80;99.90;;;;;;12573611;28;20046;-86
2022/12/20 19:01:51;;;;;;;14.65;7.47;;;8.80;99.90;;;;;;12582193;28;20474;-86
2022/12/20 19:07:53;;;;;;;13.93;7.90;;;8.70;99.90;;;;;;12580023;28;20048;-86
2022/12/20 19:13:55;;;;;;;16.77;8.32;;;8.60;99.90;;;;;;12564996;28;20099;-86
2022/12/20 19:19:57;;;;;;;14.15;8.20;;;8.50;99.90;;;;;;12581732;28;20119;-85
2022/12/20 19:26:01;;;;;;;12.18;7.93;;;8.50;99.90;;;;;;12577068;28;20036;-85
2022/12/20 19:32:06;;;;;;;11.50;8.30;;;8.40;99.90;;;;;;12567746;28;20044;-85
2022/12/20 19:38:07;;;;;;;13.75;8.20;;;8.40;99.90;;;;;;12575288;28;20052;-85
2022/12/20 19:44:10;;;;;;;15.10;8.45;;;8.40;99.90;;;;;;12588426;28;20083;-85
2022/12/20 19:50:11;;;;;;;15.05;8.38;;;8.40;99.90;;;;;;12570386;28;20063;-85
2022/12/20 19:56:15;;;;;;;14.73;8.68;;;8.30;99.90;;;;;;12571357;28;20083;-85
2022/12/20 20:02:17;;;;;;;16.07;9.10;;;8.30;99.90;;;;;;12577924;28;20044;-85
2022/12/20 20:08:19;;;;;;;16.77;9.10;;;8.30;99.90;;;;;;12581170;28;20067;-85
2022/12/20 20:14:21;;;;;;;15.05;8.73;;;8.20;99.90;;;;;;12557694;28;20043;-86
2022/12/20 20:20:23;;;;;;;14.98;8.98;;;8.30;99.90;;;;;;12579782;28;20122;-85
2022/12/20 20:26:28;;;;;;;12.48;8.07;;;8.30;99.90;;;;;;12582981;28;20097;-85
2022/12/20 20:32:30;;;;;;;11.80;8.73;;;8.20;99.90;;;;;;12548455;28;20049;-85
2022/12/20 20:38:33;;;;;;;15.15;8.48;;;8.20;99.90;;;;;;12530589;28;20044;-85
2022/12/20 20:44:35;;;;;;;14.00;8.32;;;8.30;99.90;;;;;;12535488;28;20041;-85
2022/12/20 20:50:37;;;;;;;15.43;8.98;;;8.30;99.90;;;;;;12530403;28;20767;-85
2022/12/20 20:56:39;;;;;;;15.20;8.73;;;8.30;99.90;;;;;;12552106;28;20053;-85
2022/12/20 21:02:41;;;;;;;12.40;8.00;;;8.30;99.90;;;;;;12543596;28;20080;-85
2022/12/20 21:08:43;;;;;;;12.15;8.25;;;8.30;99.90;;;;;;12555475;28;20048;-85
2022/12/20 21:14:45;;;;;;;17.27;9.25;;;8.30;99.90;;;;;;12521655;28;20037;-85
2022/12/20 21:21:09;;;;;;;14.65;8.80;;;8.30;99.90;;;;;;12534459;28;20033;-85
2022/12/20 21:27:11;;;;;;;16.25;9.05;;;8.30;99.90;;;;;;12533924;28;20349;-85
2022/12/20 21:33:13;;;;;;;13.10;9.15;;;8.30;99.90;;;;;;12535285;28;20049;-85
2022/12/20 21:39:15;;;;;;;13.50;9.57;;;8.30;99.90;;;;;;12521200;28;20045;-85
2022/12/20 21:45:17;;;;;;;14.10;9.23;;;8.30;99.90;;;;;;12535679;28;20064;-85
2022/12/20 21:51:21;;;;;;;20.38;11.75;;;8.40;99.90;;;;;;12545374;28;20198;-85
2022/12/20 21:57:24;;;;;;;18.47;11.67;;;8.40;99.90;;;;;;12543548;28;20049;-85
2022/12/20 22:03:25;;;;;;;18.42;12.35;;;8.40;99.90;;;;;;12536424;28;20060;-85
2022/12/20 22:09:27;;;;;;;19.60;13.02;;;8.30;99.90;;;;;;12538958;28;20052;-85
2022/12/20 22:15:30;;;;;;;21.88;14.18;;;8.30;99.90;;;;;;12532266;28;20632;-85
2022/12/20 22:21:33;;;;;;;20.58;13.65;;;8.40;99.90;;;;;;12560772;28;20053;-85
2022/12/20 22:27:35;;;;;;;24.50;14.20;;;8.50;99.90;;;;;;12532543;28;20084;-86
2022/12/20 22:33:38;;;;;;;20.73;13.77;;;8.50;99.90;;;;;;12537639;28;20040;-85
2022/12/20 22:39:39;;;;;;;19.88;13.02;;;8.60;99.90;;;;;;12532894;28;20052;-86
2022/12/20 22:45:41;;;;;;;19.17;11.68;;;8.80;99.90;;;;;;12536175;28;20056;-86
2022/12/20 22:51:43;;;;;;;22.60;13.65;;;8.90;99.90;;;;;;12534052;28;20041;-86
2022/12/20 22:57:59;;;;;;;24.15;14.02;;;9.00;99.90;;;;;;12529960;28;20670;-86
2022/12/20 23:04:01;;;;;;;20.95;13.55;;;8.90;99.90;;;;;;12534771;28;20048;-86
2022/12/20 23:15:38;;;;;;;20.00;13.70;;;8.80;99.90;;;;;;12533105;28;20071;-86
2022/12/20 23:16:26;;;;;;;23.33;14.10;;;8.80;99.90;;;;;;12533713;28;20060;-86
2022/12/20 23:22:37;;;;;;;20.65;14.82;;;8.60;99.90;;;;;;12542319;28;20406;-86
2022/12/20 23:28:39;;;;;;;23.35;15.57;;;8.70;99.90;;;;;;12542824;28;20470;-86
2022/12/20 23:34:41;;;;;;;22.58;15.90;;;8.80;99.90;;;;;;12568669;28;20105;-86
2022/12/20 23:40:43;;;;;;;20.00;15.00;;;8.70;99.90;;;;;;12583744;28;20056;-86
2022/12/20 23:46:45;;;;;;;19.60;14.30;;;8.70;99.90;;;;;;12566991;28;20044;-86
2022/12/20 23:52:46;;;;;;;24.00;15.52;;;8.80;99.90;;;;;;12559162;28;20044;-86
2022/12/20 23:58:53;;;;;;;22.85;16.67;;;8.80;99.90;;;;;;12565426;28;20477;-86
